sensor_id;sensor_type;location;lat;lon;timestamp;P1;durP1;ratioP1;P2;durP2;ratioP2
17943;SDS011;9097;47.028;15.444;2023-02-28T00:01:12;3.27;;;1.27;;
17943;SDS011;9097;47.028;15.444;2023-02-28T00:04:17;1.27;;;1.13;;
17943;SDS011;9097;47.028;15.444;2023-02-28T00:07:19;2.53;;;1.20;;
17943;SDS011;9097;47.028;15.444;2023-02-28T00:10:23;2.47;;;1.50;;
17943;SDS011;9097;47.028;15.444;2023-02-28T00:13:27;1.80;;;1.47;;
17943;SDS011;9097;47.028;15.444;2023-02-28T00:16:29;1.53;;;1.43;;
17943;SDS011;9097;47.028;15.444;2023-02-28T00:19:33;1.67;;;1.37;;
17943;SDS011;9097;47.028;15.444;2023-02-28T00:22:35;1.43;;;1.33;;
17943;SDS011;9097;47.028;15.444;2023-02-28T00:25:38;4.47;;;1.67;;
17943;SDS011;9097;47.028;15.444;2023-02-28T00:28:41;2.37;;;1.50;;
17943;SDS011;9097;47.028;15.444;2023-02-28T00:31:43;1.27;;;0.83;;
17943;SDS011;9097;47.028;15.444;2023-02-28T00:34:46;1.00;;;1.00;;
17943;SDS011;9097;47.028;15.444;2023-02-28T00:37:49;4.57;;;1.80;;
17943;SDS011;9097;47.028;15.444;2023-02-28T00:40:51;1.50;;;1.07;;
17943;SDS011;9097;47.028;15.444;2023-02-28T00:43:53;2.47;;;1.60;;
17943;SDS011;9097;47.028;15.444;2023-02-28T00:46:56;3.13;;;1.33;;
17943;SDS011;9097;47.028;15.444;2023-02-28T00:50:00;3.70;;;1.03;;
17943;SDS011;9097;47.028;15.444;2023-02-28T00:53:02;1.27;;;1.00;;
17943;SDS011;9097;47.028;15.444;2023-02-28T00:56:05;2.70;;;1.03;;
17943;SDS011;9097;47.028;15.444;2023-02-28T00:59:08;0.37;;;0.37;;
17943;SDS011;9097;47.028;15.444;2023-02-28T01:02:11;1.37;;;0.90;;
17943;SDS011;9097;47.028;15.444;2023-02-28T01:05:15;1.37;;;1.27;;
17943;SDS011;9097;47.028;15.444;2023-02-28T01:08:17;1.20;;;1.07;;
17943;SDS011;9097;47.028;15.444;2023-02-28T01:11:20;2.77;;;1.47;;
17943;SDS011;9097;47.028;15.444;2023-02-28T01:14:22;2.13;;;1.43;;
17943;SDS011;9097;47.028;15.444;2023-02-28T01:17:24;2.03;;;1.10;;
17943;SDS011;9097;47.028;15.444;2023-02-28T01:20:29;2.67;;;1.13;;
17943;SDS011;9097;47.028;15.444;2023-02-28T01:23:31;0.73;;;0.73;;
17943;SDS011;9097;47.028;15.444;2023-02-28T01:26:33;0.67;;;0.67;;
17943;SDS011;9097;47.028;15.444;2023-02-28T01:29:35;0.67;;;0.67;;
17943;SDS011;9097;47.028;15.444;2023-02-28T01:32:38;1.87;;;1.47;;
17943;SDS011;9097;47.028;15.444;2023-02-28T01:35:42;1.53;;;1.40;;
17943;SDS011;9097;47.028;15.444;2023-02-28T01:38:44;0.97;;;0.87;;
17943;SDS011;9097;47.028;15.444;2023-02-28T01:41:47;1.93;;;1.50;;
17943;SDS011;9097;47.028;15.444;2023-02-28T01:48:21;1.97;;;0.87;;
17943;SDS011;9097;47.028;15.444;2023-02-28T01:51:30;2.00;;;1.60;;
17943;SDS011;9097;47.028;15.444;2023-02-28T01:54:38;1.30;;;1.20;;
17943;SDS011;9097;47.028;15.444;2023-02-28T01:57:41;2.27;;;2.00;;
17943;SDS011;9097;47.028;15.444;2023-02-28T02:00:47;2.40;;;1.47;;
17943;SDS011;9097;47.028;15.444;2023-02-28T02:03:50;1.40;;;1.30;;
17943;SDS011;9097;47.028;15.444;2023-02-28T02:06:57;6.97;;;2.40;;
17943;SDS011;9097;47.028;15.444;2023-02-28T02:10:01;0.87;;;0.87;;
17943;SDS011;9097;47.028;15.444;2023-02-28T02:13:11;1.30;;;0.93;;
17943;SDS011;9097;47.028;15.444;2023-02-28T02:16:28;2.17;;;1.90;;
17943;SDS011;9097;47.028;15.444;2023-02-28T02:23:30;2.23;;;1.27;;
17943;SDS011;9097;47.028;15.444;2023-02-28T02:26:54;1.60;;;1.23;;
17943;SDS011;9097;47.028;15.444;2023-02-28T02:30:23;1.70;;;1.60;;
17943;SDS011;9097;47.028;15.444;2023-02-28T02:33:49;1.40;;;1.20;;
17943;SDS011;9097;47.028;15.444;2023-02-28T02:37:29;1.33;;;1.23;;
17943;SDS011;9097;47.028;15.444;2023-02-28T02:40:41;4.07;;;1.20;;
17943;SDS011;9097;47.028;15.444;2023-02-28T02:43:49;4.07;;;2.23;;
17943;SDS011;9097;47.028;15.444;2023-02-28T02:46:55;2.03;;;0.73;;
17943;SDS011;9097;47.028;15.444;2023-02-28T02:50:05;3.03;;;1.63;;
17943;SDS011;9097;47.028;15.444;2023-02-28T02:53:12;2.97;;;1.40;;
17943;SDS011;9097;47.028;15.444;2023-02-28T02:56:19;0.90;;;0.90;;
17943;SDS011;9097;47.028;15.444;2023-02-28T02:59:24;1.90;;;1.40;;
17943;SDS011;9097;47.028;15.444;2023-02-28T03:02:29;2.83;;;1.57;;
17943;SDS011;9097;47.028;15.444;2023-02-28T03:05:39;1.13;;;1.10;;
17943;SDS011;9097;47.028;15.444;2023-02-28T03:08:46;6.30;;;1.33;;
17943;SDS011;9097;47.028;15.444;2023-02-28T03:11:49;2.33;;;1.60;;
17943;SDS011;9097;47.028;15.444;2023-02-28T03:14:59;2.07;;;1.30;;
17943;SDS011;9097;47.028;15.444;2023-02-28T03:18:10;1.00;;;0.70;;
17943;SDS011;9097;47.028;15.444;2023-02-28T03:21:22;1.20;;;1.17;;
17943;SDS011;9097;47.028;15.444;2023-02-28T03:24:31;4.57;;;2.13;;
17943;SDS011;9097;47.028;15.444;2023-02-28T03:27:38;1.13;;;0.97;;
17943;SDS011;9097;47.028;15.444;2023-02-28T03:30:45;1.33;;;1.23;;
17943;SDS011;9097;47.028;15.444;2023-02-28T03:33:55;2.20;;;1.90;;
17943;SDS011;9097;47.028;15.444;2023-02-28T03:37:05;1.07;;;1.07;;
17943;SDS011;9097;47.028;15.444;2023-02-28T03:40:13;2.73;;;1.13;;
17943;SDS011;9097;47.028;15.444;2023-02-28T03:43:19;1.60;;;1.50;;
17943;SDS011;9097;47.028;15.444;2023-02-28T03:46:29;4.57;;;1.40;;
17943;SDS011;9097;47.028;15.444;2023-02-28T03:49:34;1.70;;;1.37;;
17943;SDS011;9097;47.028;15.444;2023-02-28T03:52:46;1.17;;;1.17;;
17943;SDS011;9097;47.028;15.444;2023-02-28T03:55:51;1.23;;;1.13;;
17943;SDS011;9097;47.028;15.444;2023-02-28T03:58:55;7.07;;;2.33;;
17943;SDS011;9097;47.028;15.444;2023-02-28T04:01:59;1.50;;;1.37;;
17943;SDS011;9097;47.028;15.444;2023-02-28T04:05:03;1.60;;;1.50;;
17943;SDS011;9097;47.028;15.444;2023-02-28T04:08:07;4.30;;;2.70;;
17943;SDS011;9097;47.028;15.444;2023-02-28T04:11:12;1.53;;;1.43;;
17943;SDS011;9097;47.028;15.444;2023-02-28T04:14:23;5.37;;;2.70;;
17943;SDS011;9097;47.028;15.444;2023-02-28T04:17:25;1.70;;;1.57;;
17943;SDS011;9097;47.028;15.444;2023-02-28T04:20:28;3.87;;;1.17;;
17943;SDS011;9097;47.028;15.444;2023-02-28T04:23:32;1.00;;;0.87;;
17943;SDS011;9097;47.028;15.444;2023-02-28T04:26:36;3.87;;;2.27;;
17943;SDS011;9097;47.028;15.444;2023-02-28T04:29:38;3.47;;;1.07;;
17943;SDS011;9097;47.028;15.444;2023-02-28T04:32:44;2.37;;;1.10;;
17943;SDS011;9097;47.028;15.444;2023-02-28T04:35:47;4.57;;;1.83;;
17943;SDS011;9097;47.028;15.444;2023-02-28T04:38:51;1.77;;;1.40;;
17943;SDS011;9097;47.028;15.444;2023-02-28T04:41:53;1.00;;;0.97;;
17943;SDS011;9097;47.028;15.444;2023-02-28T04:44:56;3.37;;;1.40;;
17943;SDS011;9097;47.028;15.444;2023-02-28T04:47:58;2.40;;;2.20;;
17943;SDS011;9097;47.028;15.444;2023-02-28T04:51:01;6.70;;;1.47;;
17943;SDS011;9097;47.028;15.444;2023-02-28T04:54:05;4.10;;;1.17;;
17943;SDS011;9097;47.028;15.444;2023-02-28T04:57:08;2.97;;;1.50;;
17943;SDS011;9097;47.028;15.444;2023-02-28T05:00:11;4.30;;;1.90;;
17943;SDS011;9097;47.028;15.444;2023-02-28T05:03:16;2.87;;;0.87;;
17943;SDS011;9097;47.028;15.444;2023-02-28T05:06:21;3.90;;;0.90;;
17943;SDS011;9097;47.028;15.444;2023-02-28T05:09:26;4.60;;;2.10;;
17943;SDS011;9097;47.028;15.444;2023-02-28T05:12:29;7.57;;;2.07;;
17943;SDS011;9097;47.028;15.444;2023-02-28T05:15:31;3.07;;;1.73;;
17943;SDS011;9097;47.028;15.444;2023-02-28T05:18:33;1.13;;;1.13;;
17943;SDS011;9097;47.028;15.444;2023-02-28T05:21:36;2.17;;;1.57;;
17943;SDS011;9097;47.028;15.444;2023-02-28T05:24:42;6.37;;;1.80;;
17943;SDS011;9097;47.028;15.444;2023-02-28T05:27:44;2.00;;;1.17;;
17943;SDS011;9097;47.028;15.444;2023-02-28T05:30:47;2.57;;;2.10;;
17943;SDS011;9097;47.028;15.444;2023-02-28T05:33:50;1.13;;;1.10;;
17943;SDS011;9097;47.028;15.444;2023-02-28T05:36:52;6.47;;;2.07;;
17943;SDS011;9097;47.028;15.444;2023-02-28T05:39:56;1.87;;;1.57;;
17943;SDS011;9097;47.028;15.444;2023-02-28T05:42:58;1.83;;;1.30;;
17943;SDS011;9097;47.028;15.444;2023-02-28T05:46:02;2.30;;;1.10;;
17943;SDS011;9097;47.028;15.444;2023-02-28T05:49:06;2.93;;;1.93;;
17943;SDS011;9097;47.028;15.444;2023-02-28T05:52:08;3.23;;;1.37;;
17943;SDS011;9097;47.028;15.444;2023-02-28T05:55:12;1.23;;;1.03;;
17943;SDS011;9097;47.028;15.444;2023-02-28T05:58:14;2.47;;;2.27;;
17943;SDS011;9097;47.028;15.444;2023-02-28T06:01:20;1.90;;;1.77;;
17943;SDS011;9097;47.028;15.444;2023-02-28T06:04:25;5.47;;;2.07;;
17943;SDS011;9097;47.028;15.444;2023-02-28T06:07:27;2.07;;;1.23;;
17943;SDS011;9097;47.028;15.444;2023-02-28T06:10:31;3.23;;;1.93;;
17943;SDS011;9097;47.028;15.444;2023-02-28T06:13:33;2.87;;;1.83;;
17943;SDS011;9097;47.028;15.444;2023-02-28T06:16:36;3.27;;;1.43;;
17943;SDS011;9097;47.028;15.444;2023-02-28T06:19:38;4.83;;;2.10;;
17943;SDS011;9097;47.028;15.444;2023-02-28T06:22:41;2.40;;;2.20;;
17943;SDS011;9097;47.028;15.444;2023-02-28T06:25:46;9.63;;;1.83;;
17943;SDS011;9097;47.028;15.444;2023-02-28T06:28:49;3.53;;;2.20;;
17943;SDS011;9097;47.028;15.444;2023-02-28T06:31:51;2.17;;;1.37;;
17943;SDS011;9097;47.028;15.444;2023-02-28T06:34:54;2.10;;;1.83;;
17943;SDS011;9097;47.028;15.444;2023-02-28T06:38:01;2.20;;;1.67;;
17943;SDS011;9097;47.028;15.444;2023-02-28T06:41:05;0.87;;;0.87;;
17943;SDS011;9097;47.028;15.444;2023-02-28T06:44:10;2.63;;;1.70;;
17943;SDS011;9097;47.028;15.444;2023-02-28T06:47:14;2.10;;;1.90;;
17943;SDS011;9097;47.028;15.444;2023-02-28T06:50:16;7.20;;;2.73;;
17943;SDS011;9097;47.028;15.444;2023-02-28T06:53:20;3.60;;;2.20;;
17943;SDS011;9097;47.028;15.444;2023-02-28T06:56:24;1.80;;;1.50;;
17943;SDS011;9097;47.028;15.444;2023-02-28T06:59:27;3.63;;;2.47;;
17943;SDS011;9097;47.028;15.444;2023-02-28T07:02:29;4.37;;;2.20;;
17943;SDS011;9097;47.028;15.444;2023-02-28T07:05:31;2.97;;;2.50;;
17943;SDS011;9097;47.028;15.444;2023-02-28T07:08:36;3.30;;;1.43;;
17943;SDS011;9097;47.028;15.444;2023-02-28T07:11:41;4.83;;;1.40;;
17943;SDS011;9097;47.028;15.444;2023-02-28T07:14:44;2.53;;;1.83;;
17943;SDS011;9097;47.028;15.444;2023-02-28T07:17:46;8.17;;;1.50;;
17943;SDS011;9097;47.028;15.444;2023-02-28T07:20:48;1.80;;;1.70;;
17943;SDS011;9097;47.028;15.444;2023-02-28T07:23:51;3.47;;;2.17;;
17943;SDS011;9097;47.028;15.444;2023-02-28T07:26:54;2.77;;;2.50;;
17943;SDS011;9097;47.028;15.444;2023-02-28T07:29:56;2.13;;;1.97;;
17943;SDS011;9097;47.028;15.444;2023-02-28T07:33:01;8.50;;;2.30;;
17943;SDS011;9097;47.028;15.444;2023-02-28T07:36:05;4.83;;;2.33;;
17943;SDS011;9097;47.028;15.444;2023-02-28T07:39:09;3.03;;;2.33;;
17943;SDS011;9097;47.028;15.444;2023-02-28T07:42:13;4.87;;;2.47;;
17943;SDS011;9097;47.028;15.444;2023-02-28T07:45:16;3.90;;;2.10;;
17943;SDS011;9097;47.028;15.444;2023-02-28T07:48:19;2.37;;;1.87;;
17943;SDS011;9097;47.028;15.444;2023-02-28T07:51:22;4.20;;;2.17;;
17943;SDS011;9097;47.028;15.444;2023-02-28T07:54:24;5.87;;;2.07;;
17943;SDS011;9097;47.028;15.444;2023-02-28T07:57:28;5.70;;;1.87;;
17943;SDS011;9097;47.028;15.444;2023-02-28T08:00:30;2.83;;;1.50;;
17943;SDS011;9097;47.028;15.444;2023-02-28T08:03:33;3.00;;;2.30;;
17943;SDS011;9097;47.028;15.444;2023-02-28T08:06:36;3.43;;;1.97;;
17943;SDS011;9097;47.028;15.444;2023-02-28T08:09:39;2.47;;;2.03;;
17943;SDS011;9097;47.028;15.444;2023-02-28T08:12:43;2.33;;;1.73;;
17943;SDS011;9097;47.028;15.444;2023-02-28T08:15:46;3.73;;;2.13;;
17943;SDS011;9097;47.028;15.444;2023-02-28T08:18:48;2.40;;;1.73;;
17943;SDS011;9097;47.028;15.444;2023-02-28T08:21:52;3.70;;;2.37;;
17943;SDS011;9097;47.028;15.444;2023-02-28T08:24:54;1.67;;;1.57;;
17943;SDS011;9097;47.028;15.444;2023-02-28T08:27:58;2.87;;;2.33;;
17943;SDS011;9097;47.028;15.444;2023-02-28T08:31:00;2.00;;;1.50;;
17943;SDS011;9097;47.028;15.444;2023-02-28T08:34:08;3.43;;;2.03;;
17943;SDS011;9097;47.028;15.444;2023-02-28T08:37:13;4.43;;;2.00;;
17943;SDS011;9097;47.028;15.444;2023-02-28T08:40:15;8.23;;;2.10;;
17943;SDS011;9097;47.028;15.444;2023-02-28T08:43:20;3.80;;;2.27;;
17943;SDS011;9097;47.028;15.444;2023-02-28T08:46:23;3.83;;;2.57;;
17943;SDS011;9097;47.028;15.444;2023-02-28T08:49:25;3.33;;;2.43;;
17943;SDS011;9097;47.028;15.444;2023-02-28T08:52:29;6.60;;;2.90;;
17943;SDS011;9097;47.028;15.444;2023-02-28T08:55:31;10.70;;;3.10;;
17943;SDS011;9097;47.028;15.444;2023-02-28T08:58:35;2.57;;;1.60;;
17943;SDS011;9097;47.028;15.444;2023-02-28T09:01:38;3.63;;;2.17;;
17943;SDS011;9097;47.028;15.444;2023-02-28T09:04:42;5.83;;;3.10;;
17943;SDS011;9097;47.028;15.444;2023-02-28T09:07:45;4.63;;;2.03;;
17943;SDS011;9097;47.028;15.444;2023-02-28T09:10:48;8.47;;;2.43;;
17943;SDS011;9097;47.028;15.444;2023-02-28T09:13:51;9.63;;;2.43;;
17943;SDS011;9097;47.028;15.444;2023-02-28T09:16:55;2.63;;;2.20;;
17943;SDS011;9097;47.028;15.444;2023-02-28T09:19:57;6.00;;;3.27;;
17943;SDS011;9097;47.028;15.444;2023-02-28T09:23:00;8.37;;;3.00;;
17943;SDS011;9097;47.028;15.444;2023-02-28T09:26:02;2.70;;;2.50;;
17943;SDS011;9097;47.028;15.444;2023-02-28T09:29:06;3.43;;;2.10;;
17943;SDS011;9097;47.028;15.444;2023-02-28T09:32:08;5.57;;;2.03;;
17943;SDS011;9097;47.028;15.444;2023-02-28T09:35:11;3.97;;;2.23;;
17943;SDS011;9097;47.028;15.444;2023-02-28T09:38:16;6.93;;;2.77;;
17943;SDS011;9097;47.028;15.444;2023-02-28T09:41:21;3.03;;;2.03;;
17943;SDS011;9097;47.028;15.444;2023-02-28T09:44:28;5.37;;;3.33;;
17943;SDS011;9097;47.028;15.444;2023-02-28T09:47:35;5.07;;;3.30;;
17943;SDS011;9097;47.028;15.444;2023-02-28T09:50:42;3.97;;;3.13;;
17943;SDS011;9097;47.028;15.444;2023-02-28T09:53:47;6.67;;;2.67;;
17943;SDS011;9097;47.028;15.444;2023-02-28T09:56:51;4.30;;;2.57;;
17943;SDS011;9097;47.028;15.444;2023-02-28T10:00:05;8.40;;;4.33;;
17943;SDS011;9097;47.028;15.444;2023-02-28T10:03:25;7.00;;;2.70;;
17943;SDS011;9097;47.028;15.444;2023-02-28T10:06:33;5.07;;;3.10;;
17943;SDS011;9097;47.028;15.444;2023-02-28T10:09:41;4.97;;;2.03;;
17943;SDS011;9097;47.028;15.444;2023-02-28T10:12:44;4.20;;;1.83;;
17943;SDS011;9097;47.028;15.444;2023-02-28T10:15:50;3.57;;;3.23;;
17943;SDS011;9097;47.028;15.444;2023-02-28T10:18:57;6.90;;;2.77;;
17943;SDS011;9097;47.028;15.444;2023-02-28T10:22:08;5.60;;;2.37;;
17943;SDS011;9097;47.028;15.444;2023-02-28T10:25:17;6.27;;;3.20;;
17943;SDS011;9097;47.028;15.444;2023-02-28T10:28:22;6.23;;;2.63;;
17943;SDS011;9097;47.028;15.444;2023-02-28T10:31:28;5.10;;;2.80;;
17943;SDS011;9097;47.028;15.444;2023-02-28T10:34:31;6.40;;;2.47;;
17943;SDS011;9097;47.028;15.444;2023-02-28T10:37:33;13.17;;;3.77;;
17943;SDS011;9097;47.028;15.444;2023-02-28T10:40:38;8.07;;;3.50;;
17943;SDS011;9097;47.028;15.444;2023-02-28T10:43:41;3.03;;;2.50;;
17943;SDS011;9097;47.028;15.444;2023-02-28T10:46:46;6.00;;;3.37;;
17943;SDS011;9097;47.028;15.444;2023-02-28T10:49:49;3.63;;;2.67;;
17943;SDS011;9097;47.028;15.444;2023-02-28T10:52:53;1.73;;;1.60;;
17943;SDS011;9097;47.028;15.444;2023-02-28T10:55:56;2.93;;;1.80;;
17943;SDS011;9097;47.028;15.444;2023-02-28T10:59:02;9.53;;;3.17;;
17943;SDS011;9097;47.028;15.444;2023-02-28T11:02:33;4.50;;;2.37;;
17943;SDS011;9097;47.028;15.444;2023-02-28T11:05:38;5.43;;;3.30;;
17943;SDS011;9097;47.028;15.444;2023-02-28T11:08:49;11.00;;;2.87;;
17943;SDS011;9097;47.028;15.444;2023-02-28T11:11:53;5.27;;;2.70;;
17943;SDS011;9097;47.028;15.444;2023-02-28T11:14:57;5.23;;;3.63;;
17943;SDS011;9097;47.028;15.444;2023-02-28T11:18:06;8.83;;;3.77;;
17943;SDS011;9097;47.028;15.444;2023-02-28T11:21:22;9.50;;;2.60;;
17943;SDS011;9097;47.028;15.444;2023-02-28T11:24:27;5.27;;;3.33;;
17943;SDS011;9097;47.028;15.444;2023-02-28T11:27:47;4.73;;;3.13;;
17943;SDS011;9097;47.028;15.444;2023-02-28T11:30:59;8.07;;;3.70;;
17943;SDS011;9097;47.028;15.444;2023-02-28T11:34:11;5.20;;;2.07;;
17943;SDS011;9097;47.028;15.444;2023-02-28T11:37:23;6.03;;;3.63;;
17943;SDS011;9097;47.028;15.444;2023-02-28T11:40:29;8.17;;;3.63;;
17943;SDS011;9097;47.028;15.444;2023-02-28T11:43:35;9.70;;;3.50;;
17943;SDS011;9097;47.028;15.444;2023-02-28T11:46:43;3.73;;;2.30;;
17943;SDS011;9097;47.028;15.444;2023-02-28T11:49:50;8.57;;;3.03;;
17943;SDS011;9097;47.028;15.444;2023-02-28T11:53:05;4.83;;;3.63;;
17943;SDS011;9097;47.028;15.444;2023-02-28T11:56:09;4.73;;;3.00;;
17943;SDS011;9097;47.028;15.444;2023-02-28T11:59:24;11.90;;;3.60;;
17943;SDS011;9097;47.028;15.444;2023-02-28T12:02:31;7.10;;;3.73;;
17943;SDS011;9097;47.028;15.444;2023-02-28T12:05:40;3.83;;;2.77;;
17943;SDS011;9097;47.028;15.444;2023-02-28T12:08:52;5.57;;;3.27;;
17943;SDS011;9097;47.028;15.444;2023-02-28T12:12:04;5.17;;;3.73;;
17943;SDS011;9097;47.028;15.444;2023-02-28T12:15:29;6.40;;;3.27;;
17943;SDS011;9097;47.028;15.444;2023-02-28T12:18:56;8.80;;;3.53;;
17943;SDS011;9097;47.028;15.444;2023-02-28T12:22:17;7.30;;;4.37;;
17943;SDS011;9097;47.028;15.444;2023-02-28T12:25:43;5.40;;;3.77;;
17943;SDS011;9097;47.028;15.444;2023-02-28T12:29:01;10.93;;;4.00;;
17943;SDS011;9097;47.028;15.444;2023-02-28T12:32:12;8.67;;;3.77;;
17943;SDS011;9097;47.028;15.444;2023-02-28T12:35:19;4.00;;;2.90;;
17943;SDS011;9097;47.028;15.444;2023-02-28T12:38:27;5.70;;;3.07;;
17943;SDS011;9097;47.028;15.444;2023-02-28T12:41:34;6.00;;;3.63;;
17943;SDS011;9097;47.028;15.444;2023-02-28T12:44:43;6.53;;;3.77;;
17943;SDS011;9097;47.028;15.444;2023-02-28T12:47:48;8.00;;;3.63;;
17943;SDS011;9097;47.028;15.444;2023-02-28T12:50:52;5.53;;;2.90;;
17943;SDS011;9097;47.028;15.444;2023-02-28T12:54:02;7.80;;;3.37;;
17943;SDS011;9097;47.028;15.444;2023-02-28T12:57:07;6.00;;;4.10;;
17943;SDS011;9097;47.028;15.444;2023-02-28T13:00:13;4.10;;;2.67;;
17943;SDS011;9097;47.028;15.444;2023-02-28T13:03:35;4.73;;;2.63;;
17943;SDS011;9097;47.028;15.444;2023-02-28T13:06:53;6.00;;;3.57;;
17943;SDS011;9097;47.028;15.444;2023-02-28T13:10:00;6.87;;;3.80;;
17943;SDS011;9097;47.028;15.444;2023-02-28T13:13:04;4.33;;;3.47;;
17943;SDS011;9097;47.028;15.444;2023-02-28T13:16:07;7.77;;;3.43;;
17943;SDS011;9097;47.028;15.444;2023-02-28T13:19:10;5.00;;;3.27;;
17943;SDS011;9097;47.028;15.444;2023-02-28T13:22:18;8.40;;;3.77;;
17943;SDS011;9097;47.028;15.444;2023-02-28T13:28:58;4.47;;;2.90;;
17943;SDS011;9097;47.028;15.444;2023-02-28T13:35:44;5.20;;;2.67;;
17943;SDS011;9097;47.028;15.444;2023-02-28T13:38:47;11.23;;;4.37;;
17943;SDS011;9097;47.028;15.444;2023-02-28T13:41:53;5.77;;;4.63;;
17943;SDS011;9097;47.028;15.444;2023-02-28T13:48:26;6.80;;;2.97;;
17943;SDS011;9097;47.028;15.444;2023-02-28T13:51:35;5.87;;;2.67;;
17943;SDS011;9097;47.028;15.444;2023-02-28T13:54:44;5.93;;;3.30;;
17943;SDS011;9097;47.028;15.444;2023-02-28T13:58:03;3.20;;;2.53;;
17943;SDS011;9097;47.028;15.444;2023-02-28T14:08:17;5.53;;;2.93;;
17943;SDS011;9097;47.028;15.444;2023-02-28T14:11:30;6.23;;;2.73;;
17943;SDS011;9097;47.028;15.444;2023-02-28T14:14:54;8.93;;;4.90;;
17943;SDS011;9097;47.028;15.444;2023-02-28T14:17:58;5.07;;;3.37;;
17943;SDS011;9097;47.028;15.444;2023-02-28T14:21:19;10.53;;;3.93;;
17943;SDS011;9097;47.028;15.444;2023-02-28T14:24:34;3.30;;;2.23;;
17943;SDS011;9097;47.028;15.444;2023-02-28T14:27:56;5.13;;;2.43;;
17943;SDS011;9097;47.028;15.444;2023-02-28T14:31:10;9.83;;;3.30;;
17943;SDS011;9097;47.028;15.444;2023-02-28T14:34:20;5.20;;;3.10;;
17943;SDS011;9097;47.028;15.444;2023-02-28T14:37:43;8.57;;;4.17;;
17943;SDS011;9097;47.028;15.444;2023-02-28T14:40:46;13.47;;;4.10;;
17943;SDS011;9097;47.028;15.444;2023-02-28T14:43:56;6.03;;;3.00;;
17943;SDS011;9097;47.028;15.444;2023-02-28T14:47:02;7.87;;;3.73;;
17943;SDS011;9097;47.028;15.444;2023-02-28T14:50:17;5.20;;;3.27;;
17943;SDS011;9097;47.028;15.444;2023-02-28T14:53:21;12.67;;;5.10;;
17943;SDS011;9097;47.028;15.444;2023-02-28T14:56:27;6.53;;;3.57;;
17943;SDS011;9097;47.028;15.444;2023-02-28T14:59:35;5.93;;;4.07;;
17943;SDS011;9097;47.028;15.444;2023-02-28T15:02:39;11.70;;;4.90;;
17943;SDS011;9097;47.028;15.444;2023-02-28T15:05:47;7.27;;;3.43;;
17943;SDS011;9097;47.028;15.444;2023-02-28T15:09:07;6.90;;;3.87;;
17943;SDS011;9097;47.028;15.444;2023-02-28T15:12:11;6.83;;;4.10;;
17943;SDS011;9097;47.028;15.444;2023-02-28T15:15:16;7.97;;;3.17;;
17943;SDS011;9097;47.028;15.444;2023-02-28T15:18:24;5.97;;;3.63;;
17943;SDS011;9097;47.028;15.444;2023-02-28T15:21:32;4.93;;;2.47;;
17943;SDS011;9097;47.028;15.444;2023-02-28T15:24:37;3.47;;;2.93;;
17943;SDS011;9097;47.028;15.444;2023-02-28T15:27:45;5.53;;;3.30;;
17943;SDS011;9097;47.028;15.444;2023-02-28T15:30:50;4.27;;;2.50;;
17943;SDS011;9097;47.028;15.444;2023-02-28T15:33:57;8.97;;;3.77;;
17943;SDS011;9097;47.028;15.444;2023-02-28T15:37:06;7.23;;;3.87;;
17943;SDS011;9097;47.028;15.444;2023-02-28T15:40:25;7.07;;;3.67;;
17943;SDS011;9097;47.028;15.444;2023-02-28T15:43:30;4.90;;;3.73;;
17943;SDS011;9097;47.028;15.444;2023-02-28T15:46:35;3.90;;;2.87;;
17943;SDS011;9097;47.028;15.444;2023-02-28T15:49:40;8.57;;;4.63;;
17943;SDS011;9097;47.028;15.444;2023-02-28T15:52:48;7.13;;;2.93;;
17943;SDS011;9097;47.028;15.444;2023-02-28T15:55:55;4.13;;;3.13;;
17943;SDS011;9097;47.028;15.444;2023-02-28T15:59:00;6.70;;;3.30;;
17943;SDS011;9097;47.028;15.444;2023-02-28T16:02:15;7.13;;;4.40;;
17943;SDS011;9097;47.028;15.444;2023-02-28T16:05:25;6.00;;;2.77;;
17943;SDS011;9097;47.028;15.444;2023-02-28T16:08:31;5.03;;;2.97;;
17943;SDS011;9097;47.028;15.444;2023-02-28T16:11:34;3.73;;;2.77;;
17943;SDS011;9097;47.028;15.444;2023-02-28T16:14:41;9.03;;;3.53;;
17943;SDS011;9097;47.028;15.444;2023-02-28T16:17:45;4.73;;;3.00;;
17943;SDS011;9097;47.028;15.444;2023-02-28T16:20:49;7.33;;;2.57;;
17943;SDS011;9097;47.028;15.444;2023-02-28T16:23:51;6.27;;;3.07;;
17943;SDS011;9097;47.028;15.444;2023-02-28T16:26:55;13.60;;;4.60;;
17943;SDS011;9097;47.028;15.444;2023-02-28T16:29:58;6.90;;;3.73;;
17943;SDS011;9097;47.028;15.444;2023-02-28T16:33:01;9.13;;;4.53;;
17943;SDS011;9097;47.028;15.444;2023-02-28T16:36:08;11.80;;;5.20;;
17943;SDS011;9097;47.028;15.444;2023-02-28T16:39:15;6.57;;;4.50;;
17943;SDS011;9097;47.028;15.444;2023-02-28T16:42:20;13.47;;;5.63;;
17943;SDS011;9097;47.028;15.444;2023-02-28T16:45:28;14.20;;;5.33;;
17943;SDS011;9097;47.028;15.444;2023-02-28T16:48:31;4.13;;;3.07;;
17943;SDS011;9097;47.028;15.444;2023-02-28T16:51:35;5.93;;;4.63;;
17943;SDS011;9097;47.028;15.444;2023-02-28T16:54:37;13.27;;;4.13;;
17943;SDS011;9097;47.028;15.444;2023-02-28T16:57:41;8.67;;;4.07;;
17943;SDS011;9097;47.028;15.444;2023-02-28T17:00:46;5.17;;;4.47;;
17943;SDS011;9097;47.028;15.444;2023-02-28T17:03:49;7.40;;;2.67;;
17943;SDS011;9097;47.028;15.444;2023-02-28T17:06:52;11.17;;;3.80;;
17943;SDS011;9097;47.028;15.444;2023-02-28T17:09:59;6.13;;;4.00;;
17943;SDS011;9097;47.028;15.444;2023-02-28T17:13:08;10.23;;;4.57;;
17943;SDS011;9097;47.028;15.444;2023-02-28T17:16:20;7.90;;;3.40;;
17943;SDS011;9097;47.028;15.444;2023-02-28T17:19:35;3.40;;;2.93;;
17943;SDS011;9097;47.028;15.444;2023-02-28T17:22:45;6.13;;;3.73;;
17943;SDS011;9097;47.028;15.444;2023-02-28T17:25:49;5.77;;;3.30;;
17943;SDS011;9097;47.028;15.444;2023-02-28T17:28:55;7.57;;;3.93;;
17943;SDS011;9097;47.028;15.444;2023-02-28T17:31:59;6.60;;;3.77;;
17943;SDS011;9097;47.028;15.444;2023-02-28T17:35:06;11.10;;;5.13;;
17943;SDS011;9097;47.028;15.444;2023-02-28T17:38:18;3.20;;;2.87;;
17943;SDS011;9097;47.028;15.444;2023-02-28T17:41:22;4.53;;;3.27;;
17943;SDS011;9097;47.028;15.444;2023-02-28T17:44:26;7.50;;;4.03;;
17943;SDS011;9097;47.028;15.444;2023-02-28T17:47:28;6.60;;;3.87;;
17943;SDS011;9097;47.028;15.444;2023-02-28T17:50:31;4.80;;;3.37;;
17943;SDS011;9097;47.028;15.444;2023-02-28T17:53:35;7.33;;;3.93;;
17943;SDS011;9097;47.028;15.444;2023-02-28T17:56:37;5.73;;;3.63;;
17943;SDS011;9097;47.028;15.444;2023-02-28T17:59:39;7.80;;;4.20;;
17943;SDS011;9097;47.028;15.444;2023-02-28T18:02:42;8.47;;;4.90;;
17943;SDS011;9097;47.028;15.444;2023-02-28T18:05:45;8.33;;;4.23;;
17943;SDS011;9097;47.028;15.444;2023-02-28T18:08:49;8.17;;;4.27;;
17943;SDS011;9097;47.028;15.444;2023-02-28T18:11:53;14.83;;;6.77;;
17943;SDS011;9097;47.028;15.444;2023-02-28T18:14:57;7.97;;;4.73;;
17943;SDS011;9097;47.028;15.444;2023-02-28T18:18:00;7.57;;;3.70;;
17943;SDS011;9097;47.028;15.444;2023-02-28T18:21:06;5.40;;;3.00;;
17943;SDS011;9097;47.028;15.444;2023-02-28T18:24:11;9.70;;;3.93;;
17943;SDS011;9097;47.028;15.444;2023-02-28T18:27:16;12.63;;;4.33;;
17943;SDS011;9097;47.028;15.444;2023-02-28T18:30:24;6.97;;;3.57;;
17943;SDS011;9097;47.028;15.444;2023-02-28T18:33:30;10.60;;;3.70;;
17943;SDS011;9097;47.028;15.444;2023-02-28T18:36:32;6.57;;;3.10;;
17943;SDS011;9097;47.028;15.444;2023-02-28T18:39:36;11.57;;;4.80;;
17943;SDS011;9097;47.028;15.444;2023-02-28T18:42:38;9.50;;;4.77;;
17943;SDS011;9097;47.028;15.444;2023-02-28T18:45:40;6.40;;;3.50;;
17943;SDS011;9097;47.028;15.444;2023-02-28T18:48:43;5.30;;;3.63;;
17943;SDS011;9097;47.028;15.444;2023-02-28T18:51:46;7.40;;;5.37;;
17943;SDS011;9097;47.028;15.444;2023-02-28T18:54:50;4.03;;;3.63;;
17943;SDS011;9097;47.028;15.444;2023-02-28T18:57:52;10.67;;;4.13;;
17943;SDS011;9097;47.028;15.444;2023-02-28T19:00:54;10.20;;;5.17;;
17943;SDS011;9097;47.028;15.444;2023-02-28T19:03:57;8.63;;;5.33;;
17943;SDS011;9097;47.028;15.444;2023-02-28T19:07:00;6.83;;;4.67;;